createdAt,value
2022-12-24T00:01:04.291Z,99756.03
2022-12-24T00:03:30.840Z,99770.19
2022-12-24T00:05:57.382Z,99769.31
2022-12-24T00:08:23.840Z,99787.09
2022-12-24T00:10:53.601Z,99787.50
2022-12-24T00:13:20.071Z,99800.53
2022-12-24T00:15:46.562Z,99814.81
2022-12-24T00:18:12.981Z,99820.59
2022-12-24T00:20:39.437Z,99823.00
2022-12-24T00:23:05.806Z,99837.13
2022-12-24T00:25:32.233Z,99844.19
2022-12-24T00:27:58.853Z,99843.28
2022-12-24T00:30:25.256Z,99844.59
2022-12-24T00:32:51.657Z,99853.72
2022-12-24T00:35:18.020Z,99856.59
2022-12-24T00:37:47.428Z,99869.03
2022-12-24T00:40:13.989Z,99856.91
2022-12-24T00:42:40.349Z,99865.44
2022-12-24T00:45:07.161Z,99859.50
2022-12-24T00:47:33.523Z,99854.59
2022-12-24T00:49:59.919Z,99857.00
2022-12-24T00:52:26.354Z,99849.94
2022-12-24T00:54:52.757Z,99851.00
2022-12-24T00:57:19.150Z,99857.78
2022-12-24T00:59:45.516Z,99861.84
2022-12-24T01:02:12.066Z,99853.69
2022-12-24T01:04:57.205Z,99858.75
2022-12-24T01:07:23.607Z,99865.88
2022-12-24T01:09:49.959Z,99865.28
2022-12-24T01:12:16.329Z,99870.47
2022-12-24T01:14:42.712Z,99873.47
2022-12-24T01:17:09.176Z,99873.03
2022-12-24T01:19:35.562Z,99862.81
2022-12-24T01:22:02.003Z,99872.25
2022-12-24T01:24:28.371Z,99875.94
2022-12-24T01:26:54.743Z,99887.16
2022-12-24T01:29:21.128Z,99897.91
2022-12-24T01:31:47.591Z,99884.41
2022-12-24T01:34:13.982Z,99897.31
2022-12-24T01:36:40.385Z,99897.13
2022-12-24T01:39:06.732Z,99915.91
2022-12-24T01:41:51.875Z,99920.38
2022-12-24T01:44:33.459Z,99922.16
2022-12-24T01:47:21.335Z,99918.19
2022-12-24T01:50:09.567Z,99931.00
2022-12-24T01:52:36.267Z,99936.19
2022-12-24T01:55:07.270Z,99929.63
2022-12-24T01:57:37.542Z,99930.91
2022-12-24T02:00:07.869Z,99923.06
2022-12-24T02:02:35.097Z,99937.28
2022-12-24T02:05:19.269Z,99933.00
2022-12-24T02:07:46.025Z,99926.94
2022-12-24T02:10:13.269Z,99938.16
2022-12-24T02:12:40.631Z,99943.53
2022-12-24T02:15:09.813Z,99950.28
2022-12-24T02:17:58.519Z,99949.88
2022-12-24T02:20:40.054Z,99957.75
2022-12-24T02:23:21.593Z,99970.88
2022-12-24T02:26:07.984Z,99960.81
2022-12-24T02:29:11.257Z,99969.28
2022-12-24T02:31:52.340Z,99966.31
2022-12-24T02:34:28.177Z,99981.00
2022-12-24T02:37:07.241Z,99987.06
2022-12-24T02:39:40.520Z,99990.44
2022-12-24T02:42:08.345Z,100008.03
2022-12-24T02:44:47.810Z,100006.63
2022-12-24T02:47:15.356Z,100013.47
2022-12-24T02:49:45.303Z,100017.53
2022-12-24T02:52:31.595Z,100012.59
2022-12-24T02:54:59.097Z,100015.19
2022-12-24T02:57:43.890Z,100015.34
2022-12-24T03:00:13.934Z,100026.69
2022-12-24T03:03:07.568Z,100027.53
2022-12-24T03:05:45.156Z,100026.94
2022-12-24T03:08:16.987Z,100028.59
2022-12-24T03:10:46.794Z,100032.41
2022-12-24T03:13:15.631Z,100024.75
2022-12-24T03:15:42.665Z,100029.50
2022-12-24T03:18:11.010Z,100033.78
2022-12-24T03:20:44.445Z,100033.56
2022-12-24T03:23:11.068Z,100041.91
2022-12-24T03:25:40.063Z,100039.41
2022-12-24T03:28:06.921Z,100049.25
2022-12-24T03:30:33.836Z,100040.06
2022-12-24T03:33:00.339Z,100039.66
2022-12-24T03:35:26.736Z,100048.28
2022-12-24T03:37:53.162Z,100048.03
2022-12-24T03:40:19.541Z,100050.53
2022-12-24T03:42:45.973Z,100050.53
2022-12-24T03:45:12.399Z,100059.84
2022-12-24T03:47:38.807Z,100064.41
2022-12-24T03:50:06.407Z,100064.84
2022-12-24T03:52:32.878Z,100061.06
2022-12-24T03:54:59.240Z,100069.53
2022-12-24T03:57:25.666Z,100064.38
2022-12-24T03:59:52.520Z,100062.63
2022-12-24T04:02:19.046Z,100061.63
2022-12-24T04:04:45.594Z,100067.22
2022-12-24T04:07:12.097Z,100068.81
2022-12-24T04:09:39.049Z,100062.63
2022-12-24T04:12:05.596Z,100070.59
2022-12-24T04:14:31.985Z,100067.09
2022-12-24T04:16:58.368Z,100075.38
2022-12-24T04:19:24.775Z,100061.75
2022-12-24T04:21:51.189Z,100081.53
2022-12-24T04:24:17.603Z,100077.38
2022-12-24T04:26:44.018Z,100084.34
2022-12-24T04:29:10.508Z,100077.78
2022-12-24T04:31:37.369Z,100079.69
2022-12-24T04:34:03.863Z,100084.75
2022-12-24T04:36:31.426Z,100087.13
2022-12-24T04:38:57.813Z,100084.56
2022-12-24T04:41:25.555Z,100092.50
2022-12-24T04:43:53.298Z,100091.09
2022-12-24T04:46:22.521Z,100086.75
2022-12-24T04:48:50.527Z,100094.97
2022-12-24T04:51:17.875Z,100105.31
2022-12-24T04:53:44.886Z,100107.22
2022-12-24T04:56:16.375Z,100099.94
2022-12-24T04:58:42.770Z,100098.06
2022-12-24T05:01:13.454Z,100098.06
2022-12-24T05:03:40.123Z,100106.59
2022-12-24T05:06:09.135Z,100106.91
2022-12-24T05:08:35.565Z,100105.81
2022-12-24T05:11:02.525Z,100122.88
2022-12-24T05:13:37.601Z,100110.13
2022-12-24T05:16:09.309Z,100118.53
2022-12-24T05:18:35.823Z,100116.91
2022-12-24T05:21:02.811Z,100112.38
2022-12-24T05:23:47.818Z,100119.31
2022-12-24T05:26:23.277Z,100122.78
2022-12-24T05:28:51.347Z,100125.09
2022-12-24T05:31:18.441Z,100127.88
2022-12-24T05:33:45.538Z,100126.63
2022-12-24T05:36:11.996Z,100133.50
2022-12-24T05:38:38.446Z,100111.50
2022-12-24T05:41:05.427Z,100119.94
2022-12-24T05:43:32.145Z,100124.00
2022-12-24T05:46:03.617Z,100129.06
2022-12-24T05:48:30.040Z,100133.53
2022-12-24T05:50:56.565Z,100144.34
2022-12-24T05:53:22.979Z,100144.56
2022-12-24T05:55:49.488Z,100154.00
2022-12-24T05:58:15.994Z,100148.31
2022-12-24T06:00:42.837Z,100152.44
2022-12-24T06:03:09.241Z,100156.69
2022-12-24T06:05:35.677Z,100158.75
2022-12-24T06:08:02.047Z,100161.13
2022-12-24T06:10:28.417Z,100163.44
2022-12-24T06:12:55.787Z,100167.50
2022-12-24T06:15:24.117Z,100170.34
2022-12-24T06:17:50.781Z,100173.97
2022-12-24T06:20:17.186Z,100165.63
2022-12-24T06:22:43.567Z,100158.78
2022-12-24T06:25:09.949Z,100173.97
2022-12-24T06:27:36.312Z,100183.00
2022-12-24T06:30:02.709Z,100177.13
2022-12-24T06:32:29.099Z,100179.13
2022-12-24T06:34:55.501Z,100185.31
2022-12-24T06:37:21.866Z,100185.78
2022-12-24T06:39:48.260Z,100191.94
2022-12-24T06:42:14.680Z,100200.03
2022-12-24T06:44:41.053Z,100193.16
2022-12-24T06:47:07.427Z,100190.84
2022-12-24T06:49:33.804Z,100193.75
2022-12-24T06:52:00.197Z,100194.28
2022-12-24T06:54:27.248Z,100204.97
2022-12-24T06:56:53.611Z,100199.81
2022-12-24T06:59:20.057Z,100197.97
2022-12-24T07:01:46.535Z,100209.78
2022-12-24T07:04:19.681Z,100215.66
2022-12-24T07:06:47.296Z,100219.69
2022-12-24T07:09:14.289Z,100215.06
2022-12-24T07:11:40.764Z,100217.75
2022-12-24T07:14:07.240Z,100215.47
2022-12-24T07:16:33.775Z,100217.44
2022-12-24T07:19:00.183Z,100220.03
2022-12-24T07:21:26.554Z,100226.75
2022-12-24T07:23:52.917Z,100220.13
2022-12-24T07:26:19.359Z,100212.97
2022-12-24T07:28:45.761Z,100232.94
2022-12-24T07:31:12.254Z,100232.13
2022-12-24T07:33:38.774Z,100236.13
2022-12-24T07:36:08.293Z,100226.97
2022-12-24T07:38:34.890Z,100229.69
2022-12-24T07:41:01.686Z,100234.16
2022-12-24T07:43:28.654Z,100241.59
2022-12-24T07:45:58.491Z,100249.13
2022-12-24T07:48:26.299Z,100250.38
2022-12-24T07:50:52.829Z,100255.94
2022-12-24T07:53:19.508Z,100252.59
2022-12-24T07:55:46.203Z,100256.31
2022-12-24T07:58:12.637Z,100257.78
2022-12-24T08:00:39.009Z,100256.06
2022-12-24T08:03:05.522Z,100257.56
2022-12-24T08:05:38.099Z,100253.97
2022-12-24T08:08:04.518Z,100268.69
2022-12-24T08:10:30.958Z,100267.13
2022-12-24T08:12:57.583Z,100267.78
2022-12-24T08:15:24.028Z,100281.03
2022-12-24T08:17:50.467Z,100277.31
2022-12-24T08:20:17.294Z,100297.19
2022-12-24T08:22:43.697Z,100293.16
2022-12-24T08:25:10.410Z,100312.78
2022-12-24T08:27:36.788Z,100308.06
2022-12-24T08:30:04.612Z,100306.47
2022-12-24T08:32:31.018Z,100314.22
2022-12-24T08:34:57.384Z,100315.94
2022-12-24T08:37:23.767Z,100310.38
2022-12-24T08:39:50.151Z,100316.59
2022-12-24T08:42:16.628Z,100317.38
2022-12-24T08:44:43.028Z,100329.75
2022-12-24T08:47:09.422Z,100337.28
2022-12-24T08:49:35.831Z,100336.72
2022-12-24T08:52:02.221Z,100342.19
2022-12-24T08:54:28.609Z,100332.97
2022-12-24T08:56:54.998Z,100326.44
2022-12-24T08:59:21.375Z,100332.13
2022-12-24T09:01:47.912Z,100343.13
2022-12-24T09:04:14.601Z,100350.03
2022-12-24T09:06:41.075Z,100357.03
2022-12-24T09:09:07.531Z,100362.28
2022-12-24T09:11:35.020Z,100361.53
2022-12-24T09:14:01.587Z,100363.06
2022-12-24T09:16:28.127Z,100375.34
2022-12-24T09:18:54.547Z,100382.31
2022-12-24T09:21:21.088Z,100385.09
2022-12-24T09:23:48.308Z,100385.66
2022-12-24T09:26:18.936Z,100389.50
2022-12-24T09:28:45.580Z,100392.53
2022-12-24T09:31:12.630Z,100397.47
2022-12-24T09:33:40.983Z,100398.78
2022-12-24T09:36:07.851Z,100408.81
2022-12-24T09:38:34.742Z,100414.69
2022-12-24T09:41:07.134Z,100418.75
2022-12-24T09:43:36.439Z,100427.31
2022-12-24T09:46:27.806Z,100418.50
2022-12-24T09:48:57.237Z,100430.66
2022-12-24T09:51:31.964Z,100434.59
2022-12-24T09:54:04.437Z,100434.09
2022-12-24T09:56:34.114Z,100428.56
2022-12-24T09:59:02.771Z,100446.00
2022-12-24T10:01:31.298Z,100445.53
2022-12-24T10:04:02.009Z,100439.69
2022-12-24T10:06:35.128Z,100438.13
2022-12-24T10:09:10.573Z,100448.47
2022-12-24T10:11:59.883Z,100453.78
2022-12-24T10:14:32.393Z,100455.22
2022-12-24T10:16:58.857Z,100449.81
2022-12-24T10:19:47.102Z,100454.53
2022-12-24T10:22:25.409Z,100452.91
2022-12-24T10:24:54.766Z,100456.53
2022-12-24T10:27:25.081Z,100460.59
2022-12-24T10:29:56.251Z,100460.16
2022-12-24T10:32:29.072Z,100450.13
2022-12-24T10:35:00.287Z,100449.34
2022-12-24T10:37:28.819Z,100460.94
2022-12-24T10:39:57.270Z,100465.06
2022-12-24T10:42:26.402Z,100465.31
2022-12-24T10:44:57.867Z,100469.09
2022-12-24T10:47:24.660Z,100455.88
2022-12-24T10:49:58.245Z,100462.09
2022-12-24T10:52:28.930Z,100453.47
2022-12-24T10:55:09.315Z,100449.22
2022-12-24T10:57:35.749Z,100452.81
2022-12-24T11:00:03.007Z,100452.47
2022-12-24T11:02:36.427Z,100454.97
2022-12-24T11:05:06.103Z,100447.22
2022-12-24T11:07:34.071Z,100446.53
2022-12-24T11:10:06.843Z,100441.94
2022-12-24T11:12:40.381Z,100437.97
2022-12-24T11:15:26.852Z,100431.81
2022-12-24T11:18:05.823Z,100442.34
2022-12-24T11:20:35.677Z,100441.91
2022-12-24T11:23:02.445Z,100437.94
2022-12-24T11:25:31.693Z,100432.78
2022-12-24T11:28:12.434Z,100438.22
2022-12-24T11:30:39.030Z,100441.19
2022-12-24T11:33:08.322Z,100445.75
2022-12-24T11:35:40.584Z,100429.81
2022-12-24T11:38:06.884Z,100428.13
2022-12-24T11:40:36.251Z,100413.66
2022-12-24T11:43:07.239Z,100429.75
2022-12-24T11:45:37.385Z,100435.50
2022-12-24T11:48:30.838Z,100429.94
2022-12-24T11:51:02.285Z,100435.06
2022-12-24T11:53:37.650Z,100446.19
2022-12-24T11:56:15.228Z,100444.06
2022-12-24T11:58:43.904Z,100444.25
2022-12-24T12:01:24.823Z,100455.00
2022-12-24T12:04:25.728Z,100445.84
2022-12-24T12:06:55.835Z,100440.03
2022-12-24T12:09:26.548Z,100438.63
2022-12-24T12:12:00.703Z,100447.66
2022-12-24T12:15:22.633Z,100456.50
2022-12-24T12:17:56.186Z,100444.66
2022-12-24T12:20:30.563Z,100460.19
2022-12-24T12:23:03.099Z,100469.00
2022-12-24T12:26:08.104Z,100484.06
2022-12-24T12:28:46.077Z,100473.97
2022-12-24T12:31:17.061Z,100458.72
2022-12-24T12:33:48.804Z,100465.91
2022-12-24T12:36:19.408Z,100470.03
2022-12-24T12:38:45.841Z,100471.97
2022-12-24T12:41:44.858Z,100479.69
2022-12-24T12:44:26.120Z,100477.88
2022-12-24T12:47:24.439Z,100484.81
2022-12-24T12:50:03.856Z,100483.00
2022-12-24T12:52:55.079Z,100490.88
2022-12-24T12:55:57.927Z,100500.69
2022-12-24T12:58:42.620Z,100495.06
2022-12-24T13:01:16.165Z,100498.41
2022-12-24T13:04:00.983Z,100506.16
2022-12-24T13:07:05.842Z,100504.38
2022-12-24T13:09:50.402Z,100495.41
2022-12-24T13:12:25.173Z,100490.84
2022-12-24T13:14:57.668Z,100495.56
2022-12-24T13:17:33.095Z,100509.75
2022-12-24T13:20:09.376Z,100513.34
2022-12-24T13:22:35.995Z,100517.09
2022-12-24T13:25:02.484Z,100520.25
2022-12-24T13:27:33.899Z,100529.63
2022-12-24T13:30:09.723Z,100518.34
2022-12-24T13:32:38.428Z,100523.47
2022-12-24T13:35:25.121Z,100528.41
2022-12-24T13:37:51.840Z,100526.91
2022-12-24T13:40:25.971Z,100537.00
2022-12-24T13:42:58.453Z,100534.41
2022-12-24T13:45:33.940Z,100534.97
2022-12-24T13:48:17.984Z,100553.00
2022-12-24T13:50:55.752Z,100554.59
2022-12-24T13:53:34.189Z,100554.03
2022-12-24T13:56:12.678Z,100564.28
2022-12-24T13:58:42.135Z,100565.38
2022-12-24T14:01:11.452Z,100564.22
2022-12-24T14:03:55.883Z,100565.91
2022-12-24T14:06:31.312Z,100556.84
2022-12-24T14:09:25.194Z,100555.06
2022-12-24T14:12:03.776Z,100558.66
2022-12-24T14:14:40.208Z,100566.88
2022-12-24T14:17:21.532Z,100566.75
2022-12-24T14:19:50.910Z,100564.09
2022-12-24T14:22:26.284Z,100568.91
2022-12-24T14:24:55.636Z,100572.84
2022-12-24T14:27:27.393Z,100573.63
2022-12-24T14:30:05.967Z,100572.16
2022-12-24T14:32:37.451Z,100580.72
2022-12-24T14:35:19.106Z,100589.91
2022-12-24T14:37:48.078Z,100588.81
2022-12-24T14:40:17.193Z,100590.75
2022-12-24T14:43:14.291Z,100599.13
2022-12-24T14:45:51.955Z,100593.28
2022-12-24T14:48:29.518Z,100603.47
2022-12-24T14:51:14.829Z,100596.91
2022-12-24T14:54:02.769Z,100604.09
2022-12-24T14:56:29.163Z,100620.66
2022-12-24T14:58:56.627Z,100618.28
2022-12-24T15:01:27.933Z,100626.81
2022-12-24T15:04:05.869Z,100623.91
2022-12-24T15:06:34.124Z,100624.91
2022-12-24T15:09:00.778Z,100631.41
2022-12-24T15:11:27.182Z,100642.53
2022-12-24T15:13:58.306Z,100641.75
2022-12-24T15:16:37.003Z,100646.03
2022-12-24T15:19:15.887Z,100640.97
2022-12-24T15:21:42.549Z,100643.66
2022-12-24T15:24:32.157Z,100647.47
2022-12-24T15:26:59.332Z,100662.25
2022-12-24T15:29:28.218Z,100665.06
2022-12-24T15:31:59.454Z,100663.03
2022-12-24T15:34:27.073Z,100663.69
2022-12-24T15:37:01.307Z,100667.59
2022-12-24T15:39:27.730Z,100667.28
2022-12-24T15:42:12.796Z,100689.50
2022-12-24T15:44:41.727Z,100684.75
2022-12-24T15:47:15.301Z,100678.41
2022-12-24T15:49:44.628Z,100688.56
2022-12-24T15:52:13.297Z,100693.53
2022-12-24T15:54:44.950Z,100694.63
2022-12-24T15:57:26.706Z,100700.13
2022-12-24T15:59:54.980Z,100705.31
2022-12-24T16:02:33.770Z,100706.34
2022-12-24T16:05:21.683Z,100710.13
2022-12-24T16:08:13.362Z,100713.91
2022-12-24T16:10:46.594Z,100712.16
2022-12-24T16:13:22.667Z,100711.41
2022-12-24T16:15:55.151Z,100707.84
2022-12-24T16:18:36.496Z,100710.09
2022-12-24T16:21:03.877Z,100703.63
2022-12-24T16:23:44.863Z,100709.44
2022-12-24T16:26:11.220Z,100711.38
2022-12-24T16:28:37.605Z,100708.44
2022-12-24T16:31:04.246Z,100714.59
2022-12-24T16:33:30.783Z,100711.41
2022-12-24T16:35:57.413Z,100718.06
2022-12-24T16:38:23.922Z,100713.56
2022-12-24T16:40:50.305Z,100710.31
2022-12-24T16:43:35.276Z,100710.72
2022-12-24T16:46:04.063Z,100714.72
2022-12-24T16:48:30.950Z,100718.72
2022-12-24T16:50:57.392Z,100720.91
2022-12-24T16:53:23.805Z,100727.13
2022-12-24T16:55:51.732Z,100734.34
2022-12-24T16:58:19.582Z,100740.53
2022-12-24T17:00:46.495Z,100739.75
2022-12-24T17:03:13.288Z,100733.69
2022-12-24T17:05:43.832Z,100739.63
2022-12-24T17:08:10.556Z,100737.19
2022-12-24T17:10:36.958Z,100750.59
2022-12-24T17:13:03.845Z,100750.97
2022-12-24T17:15:30.448Z,100750.84
2022-12-24T17:17:56.850Z,100751.00
2022-12-24T17:20:24.422Z,100755.00
2022-12-24T17:22:51.193Z,100750.50
2022-12-24T17:25:17.639Z,100759.38
2022-12-24T17:27:44.079Z,100760.78
2022-12-24T17:30:10.675Z,100759.50
2022-12-24T17:32:37.376Z,100761.44
2022-12-24T17:35:04.033Z,100753.69
2022-12-24T17:37:30.440Z,100756.28
2022-12-24T17:39:56.961Z,100759.47
2022-12-24T17:42:23.383Z,100762.72
2022-12-24T17:44:49.747Z,100764.03
2022-12-24T17:47:16.110Z,100760.41
2022-12-24T17:49:42.519Z,100760.41
2022-12-24T17:52:08.932Z,100755.91
2022-12-24T17:54:35.316Z,100761.81
2022-12-24T17:57:01.794Z,100762.56
2022-12-24T17:59:28.597Z,100762.47
2022-12-24T18:01:55.044Z,100769.66
2022-12-24T18:04:21.529Z,100766.53
2022-12-24T18:06:49.789Z,100758.31
2022-12-24T18:09:16.808Z,100773.75
2022-12-24T18:11:43.212Z,100774.63
2022-12-24T18:14:12.067Z,100788.25
2022-12-24T18:16:40.129Z,100780.91
2022-12-24T18:19:10.141Z,100776.38
2022-12-24T18:21:36.533Z,100791.66
2022-12-24T18:24:03.054Z,100778.91
2022-12-24T18:26:30.530Z,100779.31
2022-12-24T18:28:58.476Z,100779.94
2022-12-24T18:31:26.643Z,100786.38
2022-12-24T18:33:54.870Z,100786.56
2022-12-24T18:36:21.834Z,100777.41
2022-12-24T18:38:48.538Z,100781.44
2022-12-24T18:41:17.614Z,100776.00
2022-12-24T18:43:44.007Z,100777.72
2022-12-24T18:46:15.355Z,100787.25
2022-12-24T18:48:41.975Z,100781.78
2022-12-24T18:51:09.838Z,100780.78
2022-12-24T18:53:36.724Z,100792.78
2022-12-24T18:56:26.558Z,100792.41
2022-12-24T18:58:54.807Z,100800.19
2022-12-24T19:01:26.517Z,100789.31
2022-12-24T19:03:52.977Z,100794.00
2022-12-24T19:06:22.047Z,100790.13
2022-12-24T19:08:57.615Z,100783.63
2022-12-24T19:11:26.193Z,100786.56
2022-12-24T19:13:55.537Z,100787.00
2022-12-24T19:16:22.459Z,100785.19
2022-12-24T19:18:49.391Z,100787.06
2022-12-24T19:21:17.180Z,100790.66
2022-12-24T19:23:44.375Z,100792.84
2022-12-24T19:26:11.459Z,100798.75
2022-12-24T19:28:39.489Z,100800.59
2022-12-24T19:31:11.256Z,100791.53
2022-12-24T19:33:44.273Z,100797.13
2022-12-24T19:36:16.410Z,100800.13
2022-12-24T19:38:43.163Z,100790.72
2022-12-24T19:41:12.519Z,100796.50
2022-12-24T19:43:44.462Z,100800.13
2022-12-24T19:46:14.174Z,100793.41
2022-12-24T19:48:41.656Z,100795.38
2022-12-24T19:51:10.378Z,100794.34
2022-12-24T19:53:37.677Z,100799.94
2022-12-24T19:56:05.083Z,100799.06
2022-12-24T19:58:34.396Z,100791.91
2022-12-24T20:01:18.610Z,100802.22
2022-12-24T20:03:45.803Z,100799.19
2022-12-24T20:06:13.583Z,100798.06
2022-12-24T20:08:40.458Z,100806.31
2022-12-24T20:11:08.778Z,100806.44
2022-12-24T20:13:36.940Z,100798.94
2022-12-24T20:16:22.631Z,100799.56
2022-12-24T20:19:08.212Z,100799.44
2022-12-24T20:21:35.139Z,100801.50
2022-12-24T20:24:01.765Z,100807.41
2022-12-24T20:26:28.855Z,100812.47
2022-12-24T20:28:55.240Z,100810.44
2022-12-24T20:31:24.671Z,100813.00
2022-12-24T20:33:51.222Z,100805.91
2022-12-24T20:36:18.777Z,100811.81
2022-12-24T20:38:45.910Z,100811.06
2022-12-24T20:41:14.095Z,100809.00
2022-12-24T20:43:47.859Z,100814.41
2022-12-24T20:46:15.383Z,100819.97
2022-12-24T20:48:42.195Z,100824.69
2022-12-24T20:51:22.865Z,100828.59
2022-12-24T20:53:50.127Z,100819.06
2022-12-24T20:56:18.180Z,100820.38
2022-12-24T20:58:45.267Z,100829.63
2022-12-24T21:01:14.678Z,100838.91
2022-12-24T21:03:41.121Z,100844.03
2022-12-24T21:06:07.758Z,100846.16
2022-12-24T21:08:34.251Z,100843.50
2022-12-24T21:11:19.137Z,100845.44
2022-12-24T21:13:45.507Z,100848.84
2022-12-24T21:16:11.942Z,100842.59
2022-12-24T21:18:38.342Z,100843.03
2022-12-24T21:21:04.797Z,100833.84
2022-12-24T21:23:31.232Z,100841.97
2022-12-24T21:25:59.437Z,100830.72
2022-12-24T21:28:26.958Z,100829.41
2022-12-24T21:30:53.442Z,100822.50
2022-12-24T21:33:20.022Z,100836.56
2022-12-24T21:35:46.440Z,100829.66
2022-12-24T21:38:13.039Z,100818.75
2022-12-24T21:40:39.533Z,100823.59
2022-12-24T21:43:07.341Z,100825.56
2022-12-24T21:45:34.060Z,100825.34
2022-12-24T21:48:20.453Z,100827.84
2022-12-24T21:50:56.962Z,100826.97
2022-12-24T21:53:41.992Z,100827.72
2022-12-24T21:56:11.874Z,100832.84
2022-12-24T21:58:38.284Z,100829.84
2022-12-24T22:01:09.003Z,100823.69
2022-12-24T22:03:35.882Z,100821.25
2022-12-24T22:06:02.431Z,100816.22
2022-12-24T22:08:47.437Z,100824.75
2022-12-24T22:11:33.125Z,100816.66
2022-12-24T22:13:59.827Z,100805.53
2022-12-24T22:16:26.757Z,100800.81
2022-12-24T22:18:53.378Z,100794.41
2022-12-24T22:21:20.183Z,100802.91
2022-12-24T22:23:46.639Z,100801.31
2022-12-24T22:26:14.690Z,100791.56
2022-12-24T22:28:41.074Z,100780.00
2022-12-24T22:31:07.561Z,100791.28
2022-12-24T22:33:36.086Z,100787.59
2022-12-24T22:36:05.793Z,100788.34
2022-12-24T22:38:32.193Z,100794.91
2022-12-24T22:40:58.579Z,100792.88
2022-12-24T22:43:25.006Z,100783.72
2022-12-24T22:45:51.658Z,100777.78
2022-12-24T22:48:18.030Z,100782.25
2022-12-24T22:50:44.410Z,100773.44
2022-12-24T22:53:10.769Z,100768.69
2022-12-24T22:55:37.235Z,100765.16
2022-12-24T22:58:04.207Z,100766.72
2022-12-24T23:00:44.873Z,100773.38
2022-12-24T23:03:11.900Z,100776.59
2022-12-24T23:05:38.775Z,100774.19
2022-12-24T23:08:05.834Z,100766.91
2022-12-24T23:10:32.237Z,100762.06
2022-12-24T23:13:17.132Z,100761.13
2022-12-24T23:15:43.555Z,100767.16
2022-12-24T23:18:10.534Z,100772.06
2022-12-24T23:20:42.241Z,100777.78
2022-12-24T23:23:09.017Z,100781.84
2022-12-24T23:25:35.624Z,100780.28
2022-12-24T23:28:02.009Z,100787.66
2022-12-24T23:30:28.509Z,100781.50
2022-12-24T23:32:54.904Z,100775.25
2022-12-24T23:35:21.329Z,100785.69
2022-12-24T23:37:47.728Z,100786.72
2022-12-24T23:40:14.283Z,100771.91
2022-12-24T23:42:40.804Z,100775.94
2022-12-24T23:45:07.620Z,100775.13
2022-12-24T23:47:34.006Z,100784.47
2022-12-24T23:50:00.471Z,100796.97
2022-12-24T23:52:26.853Z,100801.34
2022-12-24T23:54:53.216Z,100803.81
2022-12-24T23:57:19.653Z,100798.06
2022-12-24T23:59:46.028Z,100809.56
